createdAt,value
2022-08-17T00:00:11.977Z,100042.31
2022-08-17T00:02:59.674Z,100042.19
2022-08-17T00:05:27.742Z,100040.25
2022-08-17T00:07:55.342Z,100042.69
2022-08-17T00:10:24.919Z,100044.88
2022-08-17T00:12:52.877Z,100052.97
2022-08-17T00:15:21.063Z,100052.59
2022-08-17T00:17:49.584Z,100049.03
2022-08-17T00:20:17.328Z,100055.47
2022-08-17T00:22:47.518Z,100056.19
2022-08-17T00:25:19.488Z,100048.88
2022-08-17T00:27:48.375Z,100054.91
2022-08-17T00:30:15.892Z,100048.41
2022-08-17T00:33:15.711Z,100052.53
2022-08-17T00:35:33.679Z,100056.25
2022-08-17T00:38:01.483Z,100046.56
2022-08-17T00:40:40.610Z,100042.81
2022-08-17T00:43:18.010Z,100044.56
2022-08-17T00:45:45.990Z,100046.75
2022-08-17T00:48:29.007Z,100041.88
2022-08-17T00:51:00.970Z,100033.16
2022-08-17T00:53:30.841Z,100045.53
2022-08-17T00:55:59.004Z,100044.25
2022-08-17T00:58:35.774Z,100037.38
2022-08-17T01:01:04.751Z,100037.97
2022-08-17T01:03:32.583Z,100034.81
2022-08-17T01:06:02.713Z,100044.75
2022-08-17T01:08:31.540Z,100038.00
2022-08-17T01:11:02.234Z,100039.63
2022-08-17T01:13:39.824Z,100034.53
2022-08-17T01:16:13.358Z,100038.56
2022-08-17T01:18:42.098Z,100038.84
2022-08-17T01:21:16.019Z,100040.16
2022-08-17T01:23:44.862Z,100036.41
2022-08-17T01:26:12.346Z,100034.38
2022-08-17T01:28:53.740Z,100041.09
2022-08-17T01:31:24.812Z,100037.38
2022-08-17T01:33:52.405Z,100034.97
2022-08-17T01:36:20.194Z,100034.66
2022-08-17T01:38:49.030Z,100043.88
2022-08-17T01:41:17.354Z,100041.97
2022-08-17T01:43:47.282Z,100036.81
2022-08-17T01:46:16.837Z,100029.25
2022-08-17T01:48:47.300Z,100045.25
2022-08-17T01:51:15.702Z,100029.81
2022-08-17T01:53:46.345Z,100033.63
2022-08-17T01:56:17.581Z,100029.84
2022-08-17T01:58:45.615Z,100034.66
2022-08-17T02:01:14.897Z,100034.44
2022-08-17T02:03:59.259Z,100033.63
2022-08-17T02:06:29.726Z,100033.06
2022-08-17T02:09:02.476Z,100029.56
2022-08-17T02:11:34.259Z,100023.59
2022-08-17T02:14:03.994Z,100025.50
2022-08-17T02:16:37.420Z,100025.50
2022-08-17T02:19:07.885Z,100027.16
2022-08-17T02:21:35.577Z,100028.19
2022-08-17T02:24:03.630Z,100029.56
2022-08-17T02:26:32.469Z,100026.09
2022-08-17T02:29:00.021Z,100025.81
2022-08-17T02:31:27.646Z,100032.53
2022-08-17T02:34:03.338Z,100023.31
2022-08-17T02:36:32.501Z,100032.47
2022-08-17T02:39:00.750Z,100032.53
2022-08-17T02:41:28.339Z,100031.13
2022-08-17T02:43:57.251Z,100026.25
2022-08-17T02:46:24.752Z,100029.47
2022-08-17T02:48:52.258Z,100029.47
2022-08-17T02:51:20.480Z,100025.44
2022-08-17T02:53:47.984Z,100031.09
2022-08-17T02:56:15.779Z,100027.56
2022-08-17T02:58:43.292Z,100047.31
2022-08-17T03:01:12.577Z,100032.44
2022-08-17T03:03:40.856Z,100032.91
2022-08-17T03:06:09.353Z,100040.50
2022-08-17T03:08:37.405Z,100046.97
2022-08-17T03:11:05.118Z,100043.47
2022-08-17T03:13:32.601Z,100047.53
2022-08-17T03:16:00.110Z,100046.97
2022-08-17T03:18:28.995Z,100048.31
2022-08-17T03:20:58.330Z,100051.28
2022-08-17T03:23:27.301Z,100055.06
2022-08-17T03:25:56.153Z,100049.88
2022-08-17T03:28:24.201Z,100050.13
2022-08-17T03:30:52.240Z,100050.44
2022-08-17T03:33:20.595Z,100059.44
2022-08-17T03:35:49.467Z,100055.06
2022-08-17T03:38:17.817Z,100052.88
2022-08-17T03:40:58.957Z,100052.88
2022-08-17T03:43:29.422Z,100048.00
2022-08-17T03:46:27.915Z,100046.38
2022-08-17T03:49:17.814Z,100045.28
2022-08-17T03:52:09.681Z,100053.41
2022-08-17T03:54:55.083Z,100051.50
2022-08-17T03:57:22.611Z,100051.75
2022-08-17T03:59:50.242Z,100051.78
2022-08-17T04:02:20.310Z,100036.91
2022-08-17T04:04:50.619Z,100042.06
2022-08-17T04:07:20.320Z,100037.09
2022-08-17T04:09:47.882Z,100042.59
2022-08-17T04:12:16.333Z,100040.06
2022-08-17T04:14:53.562Z,100041.66
2022-08-17T04:17:24.099Z,100031.38
2022-08-17T04:19:51.650Z,100026.09
2022-08-17T04:22:30.894Z,100026.66
2022-08-17T04:25:03.510Z,100020.75
2022-08-17T04:27:30.993Z,100031.03
2022-08-17T04:29:58.838Z,100025.31
2022-08-17T04:33:00.767Z,100032.38
2022-08-17T04:35:13.799Z,100040.44
2022-08-17T04:37:42.633Z,100033.97
2022-08-17T04:40:31.628Z,100038.72
2022-08-17T04:43:03.564Z,100048.44
2022-08-17T04:45:31.949Z,100043.13
2022-08-17T04:48:00.588Z,100041.78
2022-08-17T04:50:28.160Z,100049.66
2022-08-17T04:52:57.302Z,100053.66
2022-08-17T04:55:25.035Z,100049.66
2022-08-17T04:57:52.516Z,100060.22
2022-08-17T05:00:20.268Z,100061.31
2022-08-17T05:02:50.352Z,100060.22
2022-08-17T05:05:19.903Z,100054.22
2022-08-17T05:07:48.551Z,100061.88
2022-08-17T05:10:17.747Z,100056.72
2022-08-17T05:12:45.226Z,100070.31
2022-08-17T05:15:15.991Z,100070.81
2022-08-17T05:17:43.553Z,100072.75
2022-08-17T05:20:11.693Z,100075.97
2022-08-17T05:22:50.157Z,100075.19
2022-08-17T05:25:23.927Z,100074.41
2022-08-17T05:27:53.361Z,100079.56
2022-08-17T05:30:21.016Z,100074.41
2022-08-17T05:32:53.492Z,100079.63
2022-08-17T05:35:21.364Z,100093.97
2022-08-17T05:37:48.914Z,100084.84
2022-08-17T05:40:17.090Z,100082.97
2022-08-17T05:42:45.944Z,100079.75
2022-08-17T05:45:15.638Z,100081.91
2022-08-17T05:47:44.560Z,100078.75
2022-08-17T05:50:18.071Z,100076.59
2022-08-17T05:52:51.909Z,100077.16
2022-08-17T05:55:24.442Z,100061.50
2022-08-17T05:58:05.472Z,100062.31
2022-08-17T06:00:41.882Z,100063.97
2022-08-17T06:03:20.270Z,100055.56
2022-08-17T06:05:58.087Z,100067.47
2022-08-17T06:08:33.659Z,100058.84
2022-08-17T06:11:10.730Z,100056.38
2022-08-17T06:13:58.819Z,100062.13
2022-08-17T06:16:34.455Z,100062.09
2022-08-17T06:19:05.359Z,100060.75
2022-08-17T06:21:36.125Z,100057.78
2022-08-17T06:24:07.453Z,100060.53
2022-08-17T06:26:42.444Z,100067.56
2022-08-17T06:29:33.428Z,100068.94
2022-08-17T06:32:02.387Z,100064.03
2022-08-17T06:34:30.183Z,100069.22
2022-08-17T06:37:03.629Z,100073.00
2022-08-17T06:39:42.510Z,100072.16
2022-08-17T06:42:54.120Z,100091.97
2022-08-17T06:45:09.772Z,100088.16
2022-08-17T06:47:41.311Z,100102.00
2022-08-17T06:50:14.596Z,100093.00
2022-08-17T06:52:48.525Z,100097.38
2022-08-17T06:55:21.211Z,100097.88
2022-08-17T06:57:52.094Z,100095.72
2022-08-17T07:00:24.190Z,100096.25
2022-08-17T07:02:56.203Z,100092.47
2022-08-17T07:05:27.437Z,100091.38
2022-08-17T07:08:04.181Z,100090.84
2022-08-17T07:10:40.553Z,100097.66
2022-08-17T07:13:21.178Z,100095.41
2022-08-17T07:15:54.015Z,100093.72
2022-08-17T07:18:26.975Z,100090.69
2022-08-17T07:20:59.525Z,100083.41
2022-08-17T07:23:36.368Z,100090.19
2022-08-17T07:26:06.015Z,100089.94
2022-08-17T07:28:34.814Z,100090.22
2022-08-17T07:31:05.157Z,100088.50
2022-08-17T07:33:34.834Z,100090.59
2022-08-17T07:36:02.329Z,100094.44
2022-08-17T07:38:31.711Z,100097.66
2022-08-17T07:41:05.048Z,100094.66
2022-08-17T07:43:34.107Z,100098.22
2022-08-17T07:46:24.482Z,100110.41
2022-08-17T07:48:53.908Z,100119.69
2022-08-17T07:51:33.779Z,100120.81
2022-08-17T07:54:14.137Z,100120.50
2022-08-17T07:56:45.693Z,100119.16
2022-08-17T07:59:16.354Z,100120.69
2022-08-17T08:01:49.061Z,100127.53
2022-08-17T08:07:26.696Z,100104.97
2022-08-17T08:10:06.329Z,100104.28
2022-08-17T08:12:36.993Z,100118.09
2022-08-17T08:15:13.848Z,100118.84
2022-08-17T08:17:51.795Z,100124.03
2022-08-17T08:20:51.432Z,100128.63
2022-08-17T08:23:15.382Z,100119.41
2022-08-17T08:25:53.250Z,100121.38
2022-08-17T08:28:29.375Z,100146.09
2022-08-17T08:31:03.370Z,100144.22
2022-08-17T08:33:45.829Z,100155.09
2022-08-17T08:36:57.092Z,100161.94
2022-08-17T08:39:17.764Z,100173.34
2022-08-17T08:41:52.001Z,100176.03
2022-08-17T08:45:00.207Z,100176.03
2022-08-17T08:47:35.248Z,100183.34
2022-08-17T08:50:30.227Z,100177.41
2022-08-17T08:53:08.146Z,100182.03
2022-08-17T08:55:46.653Z,100172.25
2022-08-17T08:58:32.007Z,100169.25
2022-08-17T09:01:16.846Z,100165.44
2022-08-17T09:04:19.959Z,100173.84
2022-08-17T09:06:59.539Z,100164.91
2022-08-17T09:09:34.392Z,100157.25
2022-08-17T09:12:06.738Z,100149.94
2022-08-17T09:14:46.411Z,100160.78
2022-08-17T09:17:18.320Z,100158.34
2022-08-17T09:19:49.507Z,100154.56
2022-08-17T09:22:25.686Z,100151.00
2022-08-17T09:24:58.370Z,100163.50
2022-08-17T09:27:29.767Z,100168.44
2022-08-17T09:30:02.454Z,100175.19
2022-08-17T09:32:35.454Z,100164.56
2022-08-17T09:35:10.353Z,100149.97
2022-08-17T09:37:49.043Z,100156.50
2022-08-17T09:40:19.096Z,100158.03
2022-08-17T09:42:50.517Z,100171.03
2022-08-17T09:45:28.446Z,100192.16
2022-08-17T09:48:00.595Z,100187.19
2022-08-17T09:51:03.553Z,100178.28
2022-08-17T09:53:21.040Z,100179.56
2022-08-17T09:55:59.422Z,100184.75
2022-08-17T09:58:41.521Z,100185.09
2022-08-17T10:01:17.020Z,100184.28
2022-08-17T10:04:04.856Z,100185.59
2022-08-17T10:06:36.604Z,100183.97
2022-08-17T10:09:10.795Z,100174.56
2022-08-17T10:11:59.187Z,100182.13
2022-08-17T10:14:37.906Z,100196.47
2022-08-17T10:17:15.928Z,100204.72
2022-08-17T10:19:51.147Z,100200.44
2022-08-17T10:22:45.220Z,100211.91
2022-08-17T10:25:49.066Z,100203.06
2022-08-17T10:28:28.767Z,100197.03
2022-08-17T10:33:58.082Z,100214.25
2022-08-17T10:36:28.740Z,100207.63
2022-08-17T10:39:05.186Z,100194.88
2022-08-17T10:41:40.498Z,100183.97
2022-08-17T10:44:40.391Z,100184.94
2022-08-17T10:47:08.320Z,100190.97
2022-08-17T10:49:37.050Z,100213.22
2022-08-17T10:52:43.657Z,100203.94
2022-08-17T10:55:17.730Z,100199.47
2022-08-17T10:57:47.575Z,100198.59
2022-08-17T11:01:12.689Z,100208.03
2022-08-17T11:03:54.070Z,100226.69
2022-08-17T11:06:26.604Z,100229.97
2022-08-17T11:09:27.502Z,100224.13
2022-08-17T11:12:16.292Z,100240.50
2022-08-17T11:14:51.593Z,100229.13
2022-08-17T11:17:41.399Z,100225.84
2022-08-17T11:20:23.979Z,100226.63
2022-08-17T11:23:10.511Z,100224.13
2022-08-17T11:25:39.987Z,100226.16
2022-08-17T11:28:10.572Z,100218.97
2022-08-17T11:30:46.857Z,100215.06
2022-08-17T11:33:52.346Z,100215.09
2022-08-17T11:36:38.872Z,100210.44
2022-08-17T11:39:18.711Z,100207.19
2022-08-17T11:41:50.943Z,100207.72
2022-08-17T11:44:37.613Z,100198.66
2022-08-17T11:47:34.146Z,100199.25
2022-08-17T11:50:39.245Z,100206.56
2022-08-17T11:53:09.595Z,100215.16
2022-08-17T11:56:05.583Z,100213.59
2022-08-17T11:58:40.153Z,100197.03
2022-08-17T12:01:08.987Z,100201.09
2022-08-17T12:03:54.024Z,100202.22
2022-08-17T12:06:31.103Z,100208.34
2022-08-17T12:09:06.499Z,100205.44
2022-08-17T12:11:56.305Z,100211.03
2022-08-17T12:14:51.684Z,100213.88
2022-08-17T12:17:39.658Z,100211.66
2022-08-17T12:20:14.633Z,100207.63
2022-08-17T12:22:53.299Z,100199.50
2022-08-17T12:25:25.822Z,100192.28
2022-08-17T12:28:04.839Z,100190.56
2022-08-17T12:30:34.546Z,100194.94
2022-08-17T12:33:02.369Z,100183.28
2022-08-17T12:35:33.048Z,100180.25
2022-08-17T12:38:01.132Z,100176.81
2022-08-17T12:40:32.188Z,100184.09
2022-08-17T12:43:01.401Z,100195.72
2022-08-17T12:45:31.159Z,100189.78
2022-08-17T12:48:04.074Z,100189.59
2022-08-17T12:50:32.117Z,100185.94
2022-08-17T12:53:02.496Z,100179.41
2022-08-17T12:55:36.962Z,100177.81
2022-08-17T12:58:04.949Z,100180.03
2022-08-17T13:00:34.559Z,100179.44
2022-08-17T13:03:07.615Z,100176.13
2022-08-17T13:05:37.764Z,100168.44
2022-08-17T13:08:14.685Z,100170.63
2022-08-17T13:10:43.809Z,100164.16
2022-08-17T13:13:22.201Z,100161.78
2022-08-17T13:15:54.016Z,100166.09
2022-08-17T13:18:46.215Z,100162.78
2022-08-17T13:21:26.743Z,100156.38
2022-08-17T13:24:01.843Z,100157.56
2022-08-17T13:26:34.499Z,100144.78
2022-08-17T13:29:03.196Z,100146.66
2022-08-17T13:31:42.880Z,100143.84
2022-08-17T13:34:34.179Z,100139.44
2022-08-17T13:37:33.958Z,100139.44
2022-08-17T13:40:14.235Z,100136.31
2022-08-17T13:42:52.038Z,100134.81
2022-08-17T13:45:39.192Z,100136.81
2022-08-17T13:48:14.336Z,100135.59
2022-08-17T13:50:45.445Z,100135.66
2022-08-17T13:53:18.232Z,100128.91
2022-08-17T13:55:49.144Z,100127.41
2022-08-17T13:58:22.954Z,100118.44
2022-08-17T14:00:51.664Z,100117.44
2022-08-17T14:03:20.069Z,100118.97
2022-08-17T14:05:48.401Z,100123.81
2022-08-17T14:08:17.353Z,100113.69
2022-08-17T14:10:45.457Z,100117.19
2022-08-17T14:13:15.262Z,100118.66
2022-08-17T14:15:53.988Z,100103.41
2022-08-17T14:18:42.047Z,100092.84
2022-08-17T14:21:11.955Z,100079.06
2022-08-17T14:23:39.440Z,100087.16
2022-08-17T14:26:08.513Z,100079.72
2022-08-17T14:28:36.466Z,100092.63
2022-08-17T14:31:07.340Z,100079.56
2022-08-17T14:33:35.257Z,100071.34
2022-08-17T14:36:02.739Z,100073.75
2022-08-17T14:38:30.304Z,100080.22
2022-08-17T14:40:58.222Z,100076.50
2022-08-17T14:43:25.877Z,100067.28
2022-08-17T14:45:53.360Z,100065.84
2022-08-17T14:48:22.231Z,100066.97
2022-08-17T14:50:49.717Z,100063.25
2022-08-17T14:53:17.290Z,100063.91
2022-08-17T14:55:45.765Z,100057.44
2022-08-17T14:58:14.684Z,100061.78
2022-08-17T15:00:43.588Z,100054.53
2022-08-17T15:03:12.244Z,100057.44
2022-08-17T15:05:44.016Z,100058.25
2022-08-17T15:08:11.631Z,100056.81
2022-08-17T15:10:39.610Z,100058.88
2022-08-17T15:13:21.178Z,100056.16
2022-08-17T15:15:49.919Z,100057.13
2022-08-17T15:18:18.535Z,100051.00
2022-08-17T15:20:48.638Z,100050.16
2022-08-17T15:23:16.886Z,100049.06
2022-08-17T15:25:44.655Z,100034.50
2022-08-17T15:28:12.158Z,100041.00
2022-08-17T15:30:42.931Z,100050.69
2022-08-17T15:33:14.113Z,100041.63
2022-08-17T15:35:44.151Z,100032.94
2022-08-17T15:38:13.369Z,100043.88
2022-08-17T15:40:45.336Z,100046.97
2022-08-17T15:43:14.695Z,100049.03
2022-08-17T15:45:42.435Z,100050.97
2022-08-17T15:48:10.352Z,100036.59
2022-08-17T15:50:38.297Z,100040.00
2022-08-17T15:53:05.781Z,100038.72
2022-08-17T15:55:35.222Z,100038.38
2022-08-17T15:58:02.815Z,100032.41
2022-08-17T16:00:30.449Z,100016.25
2022-08-17T16:03:44.914Z,100023.22
2022-08-17T16:05:47.546Z,100017.91
2022-08-17T16:08:20.606Z,100021.94
2022-08-17T16:10:49.929Z,100026.13
2022-08-17T16:13:18.289Z,100029.66
2022-08-17T16:15:51.040Z,100028.06
2022-08-17T16:18:25.538Z,100021.56
2022-08-17T16:20:53.576Z,100024.19
2022-08-17T16:23:21.041Z,100026.44
2022-08-17T16:25:53.717Z,100017.25
2022-08-17T16:28:35.791Z,100012.56
2022-08-17T16:31:05.790Z,100018.06
2022-08-17T16:33:35.824Z,100005.78
2022-08-17T16:36:03.573Z,100010.94
2022-08-17T16:38:31.060Z,100005.28
2022-08-17T16:40:59.984Z,100016.75
2022-08-17T16:43:28.673Z,100023.13
2022-08-17T16:45:56.159Z,100024.44
2022-08-17T16:48:24.215Z,100026.91
2022-08-17T16:51:02.933Z,100021.59
2022-08-17T16:53:31.480Z,100030.16
2022-08-17T16:56:00.415Z,100010.28
2022-08-17T16:58:27.949Z,100023.53
2022-08-17T17:00:57.159Z,100016.72
2022-08-17T17:03:26.031Z,100028.19
2022-08-17T17:06:00.499Z,100024.81
2022-08-17T17:08:34.681Z,100022.53
2022-08-17T17:11:10.345Z,100028.38
2022-08-17T17:13:40.341Z,100025.59
2022-08-17T17:16:14.790Z,100027.66
2022-08-17T17:18:56.270Z,100023.13
2022-08-17T17:21:26.649Z,100015.88
2022-08-17T17:23:57.790Z,100013.75
2022-08-17T17:26:35.322Z,100008.59
2022-08-17T17:29:16.273Z,100002.16
2022-08-17T17:31:51.690Z,100006.50
2022-08-17T17:34:19.940Z,100013.72
2022-08-17T17:36:51.682Z,100004.56
2022-08-17T17:39:31.878Z,100016.78
2022-08-17T17:42:05.703Z,100014.56
2022-08-17T17:44:36.011Z,100018.06
2022-08-17T17:47:04.516Z,100018.50
2022-08-17T17:49:35.322Z,100018.69
2022-08-17T17:52:13.186Z,100011.75
2022-08-17T17:54:57.429Z,100006.28
2022-08-17T17:57:34.096Z,100016.09
2022-08-17T18:00:06.710Z,100007.53
2022-08-17T18:02:51.548Z,100009.88
2022-08-17T18:05:40.283Z,100012.88
2022-08-17T18:08:12.633Z,100012.69
2022-08-17T18:10:49.125Z,100020.09
2022-08-17T18:13:22.748Z,100027.28
2022-08-17T18:15:54.767Z,100024.00
2022-08-17T18:18:37.566Z,100024.75
2022-08-17T18:21:14.717Z,100016.97
2022-08-17T18:23:54.908Z,100014.16
2022-08-17T18:26:37.914Z,100009.94
2022-08-17T18:29:22.894Z,100014.34
2022-08-17T18:32:12.450Z,100014.75
2022-08-17T18:34:48.521Z,100017.56
2022-08-17T18:37:35.070Z,100019.09
2022-08-17T18:40:26.014Z,100017.19
2022-08-17T18:43:12.789Z,100018.81
2022-08-17T18:45:48.338Z,100028.06
2022-08-17T18:48:33.176Z,100030.28
2022-08-17T18:51:02.607Z,100033.84
2022-08-17T18:53:39.145Z,100042.97
2022-08-17T18:56:30.703Z,100048.38
2022-08-17T18:59:22.924Z,100043.22
2022-08-17T19:02:10.251Z,100047.25
2022-08-17T19:04:42.266Z,100043.69
2022-08-17T19:07:14.039Z,100062.97
2022-08-17T19:09:45.222Z,100065.28
2022-08-17T19:12:27.190Z,100065.22
2022-08-17T19:14:56.444Z,100067.81
2022-08-17T19:17:30.078Z,100071.81
2022-08-17T19:20:01.161Z,100077.66
2022-08-17T19:22:37.181Z,100075.81
2022-08-17T19:25:11.495Z,100073.16
2022-08-17T19:27:49.965Z,100077.03
2022-08-17T19:30:18.046Z,100076.03
2022-08-17T19:32:46.926Z,100072.47
2022-08-17T19:35:17.543Z,100077.19
2022-08-17T19:37:52.677Z,100075.19
2022-08-17T19:40:50.979Z,100080.19
2022-08-17T19:43:19.727Z,100091.38
2022-08-17T19:45:56.954Z,100095.63
2022-08-17T19:48:35.535Z,100101.06
2022-08-17T19:51:07.283Z,100096.78
2022-08-17T19:54:04.506Z,100095.34
2022-08-17T19:56:37.863Z,100094.06
2022-08-17T19:59:11.284Z,100096.63
2022-08-17T20:01:47.979Z,100092.97
2022-08-17T20:04:22.285Z,100097.06
2022-08-17T20:06:50.287Z,100096.38
2022-08-17T20:09:21.150Z,100098.59
2022-08-17T20:11:50.454Z,100101.66
2022-08-17T20:14:20.757Z,100105.81
2022-08-17T20:16:48.551Z,100100.94
2022-08-17T20:19:23.819Z,100097.19
2022-08-17T20:21:55.277Z,100098.81
2022-08-17T20:24:27.086Z,100093.91
2022-08-17T20:26:58.393Z,100098.66
2022-08-17T20:29:40.247Z,100096.25
2022-08-17T20:32:20.080Z,100094.38
2022-08-17T20:34:49.198Z,100095.22
2022-08-17T20:37:30.076Z,100088.47
2022-08-17T20:40:22.434Z,100091.53
2022-08-17T20:42:49.940Z,100089.66
2022-08-17T20:45:43.340Z,100095.66
2022-08-17T20:48:36.210Z,100090.00
2022-08-17T20:51:17.774Z,100089.22
2022-08-17T20:54:02.070Z,100091.16
2022-08-17T20:56:56.113Z,100083.00
2022-08-17T21:00:04.873Z,100086.91
2022-08-17T21:02:32.806Z,100086.34
2022-08-17T21:05:30.340Z,100084.22
2022-08-17T21:08:01.029Z,100087.50
2022-08-17T21:10:38.506Z,100091.31
2022-08-17T21:13:29.508Z,100096.75
2022-08-17T21:15:59.882Z,100108.72
2022-08-17T21:18:34.001Z,100107.66
2022-08-17T21:21:14.146Z,100105.50
2022-08-17T21:23:58.493Z,100104.69
2022-08-17T21:26:33.222Z,100110.41
2022-08-17T21:29:14.703Z,100109.28
2022-08-17T21:32:21.060Z,100108.25
2022-08-17T21:35:23.903Z,100114.75
2022-08-17T21:37:54.003Z,100131.03
2022-08-17T21:40:26.620Z,100138.09
2022-08-17T21:42:57.994Z,100132.94
2022-08-17T21:45:27.567Z,100135.38
2022-08-17T21:48:09.442Z,100136.47
2022-08-17T21:50:37.535Z,100146.22
2022-08-17T21:53:05.919Z,100134.84
2022-08-17T21:55:36.782Z,100131.03
2022-08-17T21:58:14.427Z,100128.88
2022-08-17T22:00:44.075Z,100134.84
2022-08-17T22:03:23.581Z,100137.78
2022-08-17T22:05:51.677Z,100141.31
2022-08-17T22:08:24.674Z,100138.88
2022-08-17T22:11:01.894Z,100137.53
2022-08-17T22:13:30.039Z,100124.81
2022-08-17T22:16:27.966Z,100120.72
2022-08-17T22:18:57.836Z,100115.28
2022-08-17T22:21:26.096Z,100119.38
2022-08-17T22:24:04.822Z,100112.84
2022-08-17T22:27:03.318Z,100117.44
2022-08-17T22:29:57.494Z,100122.88
2022-08-17T22:32:41.373Z,100129.66
2022-08-17T22:35:37.240Z,100142.97
2022-08-17T22:38:27.098Z,100140.50
2022-08-17T22:40:57.354Z,100146.47
2022-08-17T22:43:28.466Z,100143.50
2022-08-17T22:45:59.111Z,100147.28
2022-08-17T22:48:29.402Z,100150.28
2022-08-17T22:51:12.797Z,100160.31
2022-08-17T22:54:04.485Z,100169.47
2022-08-17T22:56:49.872Z,100164.00
2022-08-17T22:59:41.749Z,100166.72
2022-08-17T23:02:27.462Z,100166.16
2022-08-17T23:04:59.169Z,100163.97
2022-08-17T23:07:27.649Z,100166.94
2022-08-17T23:09:55.531Z,100169.91
2022-08-17T23:12:26.274Z,100169.91
2022-08-17T23:15:00.552Z,100177.78
2022-08-17T23:17:33.917Z,100184.53
2022-08-17T23:20:05.260Z,100176.41
2022-08-17T23:22:33.254Z,100176.41
2022-08-17T23:25:00.715Z,100181.28
2022-08-17T23:27:29.258Z,100182.31
2022-08-17T23:29:58.641Z,100182.78
2022-08-17T23:32:26.363Z,100188.25
2022-08-17T23:34:53.875Z,100179.84
2022-08-17T23:37:21.360Z,100181.19
2022-08-17T23:39:48.807Z,100179.25
2022-08-17T23:42:21.599Z,100179.91
2022-08-17T23:44:49.457Z,100186.81
2022-08-17T23:47:18.448Z,100187.28
2022-08-17T23:49:45.950Z,100191.91
2022-08-17T23:52:16.345Z,100189.53
2022-08-17T23:54:46.510Z,100190.22
2022-08-17T23:57:16.675Z,100182.63
2022-08-17T23:59:44.782Z,100188.56
